createdAt,value
2018-07-27T00:00:15.759Z,47.30
2018-07-27T00:02:45.139Z,46.20
2018-07-27T00:05:14.845Z,45.80
2018-07-27T00:07:43.838Z,46.10
2018-07-27T00:10:17.395Z,46.20
2018-07-27T00:12:46.275Z,46.10
2018-07-27T00:15:15.134Z,45.90
2018-07-27T00:17:45.231Z,46.50
2018-07-27T00:20:15.216Z,46.40
2018-07-27T00:22:44.168Z,46.00
2018-07-27T00:25:13.009Z,46.40
2018-07-27T00:27:42.024Z,46.90
2018-07-27T00:30:11.674Z,46.60
2018-07-27T00:32:40.414Z,46.60
2018-07-27T00:35:09.970Z,46.50
2018-07-27T00:37:39.332Z,47.00
2018-07-27T00:40:09.339Z,47.20
2018-07-27T00:42:39.201Z,46.90
2018-07-27T00:45:10.658Z,48.00
2018-07-27T00:47:39.728Z,47.80
2018-07-27T00:50:08.830Z,47.80
2018-07-27T00:52:38.281Z,47.80
2018-07-27T00:55:08.655Z,48.10
2018-07-27T00:57:37.591Z,47.70
2018-07-27T01:00:07.525Z,48.10
2018-07-27T01:05:06.155Z,48.90
2018-07-27T01:07:41.253Z,48.80
2018-07-27T01:10:10.658Z,49.00
2018-07-27T01:12:39.331Z,49.20
2018-07-27T01:15:08.028Z,49.20
2018-07-27T01:17:36.809Z,49.20
2018-07-27T01:20:07.833Z,49.90
2018-07-27T01:22:38.267Z,49.60
2018-07-27T01:25:07.887Z,49.80
2018-07-27T01:27:37.339Z,50.30
2018-07-27T01:30:08.007Z,50.20
2018-07-27T01:32:37.165Z,50.20
2018-07-27T01:35:09.012Z,50.40
2018-07-27T01:37:38.553Z,50.50
2018-07-27T01:40:07.833Z,51.00
2018-07-27T01:42:37.993Z,51.20
2018-07-27T01:45:08.048Z,50.90
2018-07-27T01:47:38.348Z,51.00
2018-07-27T01:50:07.076Z,50.90
2018-07-27T01:52:37.760Z,50.90
2018-07-27T02:00:08.303Z,51.20
2018-07-27T02:02:46.503Z,51.30
2018-07-27T02:05:18.542Z,51.20
2018-07-27T02:07:48.041Z,51.40
2018-07-27T02:10:23.310Z,52.20
2018-07-27T02:15:22.730Z,52.60
2018-07-27T02:17:52.248Z,52.80
2018-07-27T02:20:21.350Z,52.60
2018-07-27T02:22:52.150Z,52.20
2018-07-27T02:25:21.024Z,51.60
2018-07-27T02:27:51.428Z,51.60
2018-07-27T02:30:21.530Z,52.10
2018-07-27T02:32:52.151Z,52.20
2018-07-27T02:35:20.932Z,51.90
2018-07-27T02:37:50.686Z,51.40
2018-07-27T02:40:20.267Z,51.50
2018-07-27T02:42:50.334Z,50.90
2018-07-27T02:45:22.348Z,51.40
2018-07-27T02:47:53.606Z,50.90
2018-07-27T02:50:23.082Z,51.30
2018-07-27T02:52:54.932Z,50.70
2018-07-27T02:55:25.060Z,51.10
2018-07-27T03:00:22.636Z,50.60
2018-07-27T03:12:37.195Z,51.00
2018-07-27T03:17:35.421Z,53.80
2018-07-27T03:20:05.415Z,53.60
2018-07-27T03:22:37.466Z,53.00
2018-07-27T03:27:35.397Z,52.40
2018-07-27T03:30:05.589Z,51.60
2018-07-27T03:32:36.207Z,52.10
2018-07-27T03:35:05.227Z,51.50
2018-07-27T03:40:05.017Z,52.00
2018-07-27T03:42:33.725Z,51.30
2018-07-27T03:45:04.775Z,51.70
2018-07-27T03:47:34.067Z,51.60
2018-07-27T03:50:04.508Z,51.10
2018-07-27T03:52:33.327Z,51.20
2018-07-27T03:55:03.701Z,50.90
2018-07-27T03:57:33.544Z,50.70
2018-07-27T04:02:31.715Z,51.60
2018-07-27T04:05:02.658Z,50.40
2018-07-27T04:07:32.308Z,50.50
2018-07-27T04:10:01.011Z,50.70
2018-07-27T04:12:31.257Z,51.00
2018-07-27T04:15:00.099Z,50.50
2018-07-27T04:17:28.984Z,50.00
2018-07-27T04:19:57.774Z,49.90
2018-07-27T04:22:26.399Z,49.90
2018-07-27T04:24:55.005Z,49.70
2018-07-27T04:27:23.816Z,49.30
2018-07-27T04:29:52.495Z,49.40
2018-07-27T04:32:21.649Z,49.10
2018-07-27T04:34:50.604Z,49.60
2018-07-27T04:37:19.392Z,48.80
2018-07-27T04:39:48.638Z,49.00
2018-07-27T04:42:17.620Z,48.70
2018-07-27T04:44:46.174Z,48.30
2018-07-27T04:47:15.537Z,48.20
2018-07-27T04:52:13.793Z,47.30
2018-07-27T04:54:42.404Z,47.10
2018-07-27T04:57:11.698Z,46.50
2018-07-27T04:59:41.682Z,45.70
2018-07-27T05:02:11.234Z,45.20
2018-07-27T05:04:40.863Z,45.20
2018-07-27T05:07:09.792Z,45.00
2018-07-27T05:09:40.552Z,45.20
2018-07-27T05:12:11.466Z,44.00
2018-07-27T05:14:41.680Z,43.40
2018-07-27T05:26:59.253Z,43.90
2018-07-27T05:29:29.680Z,42.40
2018-07-27T05:31:59.803Z,43.00
2018-07-27T05:34:30.167Z,41.90
2018-07-27T05:37:00.452Z,39.00
2018-07-27T05:39:30.795Z,39.20
2018-07-27T05:42:01.207Z,38.10
2018-07-27T05:44:31.983Z,36.80
2018-07-27T05:47:02.369Z,36.30
2018-07-27T05:49:32.847Z,35.80
2018-07-27T05:52:04.856Z,35.20
2018-07-27T05:54:37.101Z,35.50
2018-07-27T05:57:06.687Z,35.00
2018-07-27T05:59:42.034Z,35.20
2018-07-27T06:02:13.347Z,35.30
2018-07-27T06:04:47.017Z,34.20
2018-07-27T06:07:20.583Z,34.80
2018-07-27T06:09:57.824Z,35.10
2018-07-27T06:12:31.865Z,33.90
2018-07-27T06:15:01.965Z,34.70
2018-07-27T06:17:39.871Z,35.10
2018-07-27T06:20:11.036Z,34.80
2018-07-27T06:22:48.588Z,35.30
2018-07-27T06:25:19.168Z,34.00
2018-07-27T06:27:49.030Z,34.70
2018-07-27T06:30:21.457Z,33.80
2018-07-27T06:32:52.712Z,33.50
2018-07-27T06:35:22.083Z,34.10
2018-07-27T06:37:54.031Z,33.80
2018-07-27T06:40:26.008Z,34.10
2018-07-27T06:42:58.716Z,33.60
2018-07-27T06:45:28.461Z,33.00
2018-07-27T06:47:59.967Z,32.90
2018-07-27T06:50:31.258Z,32.60
2018-07-27T06:53:01.076Z,32.30
2018-07-27T06:55:34.292Z,31.50
2018-07-27T06:58:07.108Z,30.40
2018-07-27T07:00:37.265Z,29.40
2018-07-27T07:03:09.834Z,28.70
2018-07-27T07:05:41.612Z,28.80
2018-07-27T07:10:50.052Z,27.50
2018-07-27T07:13:21.124Z,27.50
2018-07-27T07:18:26.904Z,27.00
2018-07-27T07:20:59.860Z,26.70
2018-07-27T07:23:30.980Z,26.10
2018-07-27T07:26:00.745Z,25.70
2018-07-27T07:28:31.625Z,25.00
2018-07-27T07:31:05.595Z,25.30
2018-07-27T07:33:40.071Z,25.50
2018-07-27T07:36:13.977Z,25.10
2018-07-27T07:38:44.599Z,24.50
2018-07-27T07:41:15.564Z,24.00
2018-07-27T07:43:50.682Z,23.70
2018-07-27T07:46:22.976Z,23.40
2018-07-27T07:48:55.217Z,23.50
2018-07-27T07:51:25.612Z,23.30
2018-07-27T07:53:57.949Z,23.50
2018-07-27T07:56:28.856Z,23.00
2018-07-27T07:58:58.543Z,22.90
2018-07-27T08:01:29.441Z,21.80
2018-07-27T08:04:00.170Z,21.40
2018-07-27T08:06:35.271Z,20.90
2018-07-27T08:09:08.508Z,20.60
2018-07-27T08:11:44.403Z,20.80
2018-07-27T08:14:16.243Z,20.00
2018-07-27T08:16:47.037Z,18.70
2018-07-27T08:19:18.453Z,17.30
2018-07-27T08:21:50.124Z,16.40
2018-07-27T08:24:21.115Z,16.30
2018-07-27T08:26:52.001Z,14.50
2018-07-27T08:32:02.111Z,13.00
2018-07-27T08:34:35.969Z,11.60
2018-07-27T08:37:07.190Z,11.50
2018-07-27T08:39:43.236Z,10.90
2018-07-27T08:42:14.408Z,10.10
2018-07-27T08:44:44.813Z,10.20
2018-07-27T08:47:18.698Z,10.30
2018-07-27T08:49:50.142Z,9.40
2018-07-27T08:52:27.941Z,9.70
2018-07-27T08:55:00.286Z,8.90
2018-07-27T09:00:08.540Z,8.60
2018-07-27T09:02:42.149Z,8.70
2018-07-27T09:05:12.360Z,10.10
2018-07-27T09:07:48.390Z,9.80
2018-07-27T09:10:19.146Z,9.80
2018-07-27T09:12:53.791Z,10.50
2018-07-27T09:15:24.612Z,10.10
2018-07-27T09:17:58.973Z,10.30
2018-07-27T09:30:14.369Z,10.50
2018-07-27T09:32:48.969Z,9.70
2018-07-27T09:35:20.106Z,8.10
2018-07-27T09:37:50.526Z,8.60
2018-07-27T09:40:19.395Z,9.20
2018-07-27T09:42:50.682Z,7.80
2018-07-27T09:45:20.631Z,7.50
2018-07-27T09:47:53.037Z,7.10
2018-07-27T09:50:23.433Z,6.40
2018-07-27T09:52:54.425Z,6.70
2018-07-27T09:55:27.905Z,6.60
2018-07-27T09:58:00.087Z,7.00
2018-07-27T10:00:34.500Z,7.10
2018-07-27T10:03:06.577Z,6.10
2018-07-27T10:05:43.924Z,6.60
2018-07-27T10:08:15.851Z,6.50
2018-07-27T10:10:45.674Z,7.90
2018-07-27T10:13:15.939Z,6.20
2018-07-27T10:15:51.550Z,6.20
2018-07-27T10:18:24.974Z,5.90
2018-07-27T10:20:57.204Z,5.90
2018-07-27T10:23:28.458Z,7.00
2018-07-27T10:26:03.939Z,6.90
2018-07-27T10:31:04.660Z,7.60
2018-07-27T10:33:36.498Z,7.50
2018-07-27T10:36:13.611Z,7.40
2018-07-27T10:38:45.319Z,6.50
2018-07-27T10:41:17.506Z,8.20
2018-07-27T10:43:50.379Z,7.60
2018-07-27T10:46:20.310Z,6.90
2018-07-27T10:48:51.361Z,6.10
2018-07-27T10:51:22.161Z,7.40
2018-07-27T10:53:52.291Z,6.20
2018-07-27T10:56:23.627Z,6.30
2018-07-27T10:58:54.541Z,6.70
2018-07-27T11:01:26.348Z,7.50
2018-07-27T11:06:28.094Z,6.30
2018-07-27T11:09:01.465Z,6.10
2018-07-27T11:11:32.562Z,6.90
2018-07-27T11:14:03.173Z,6.20
2018-07-27T11:16:35.260Z,6.00
2018-07-27T11:21:39.661Z,6.00
2018-07-27T11:24:14.286Z,6.00
2018-07-27T11:26:43.631Z,6.10
2018-07-27T11:29:14.876Z,6.00
2018-07-27T11:31:49.949Z,5.90
2018-07-27T11:34:19.873Z,5.90
2018-07-27T11:36:50.685Z,5.90
2018-07-27T11:39:22.733Z,7.00
2018-07-27T11:41:53.615Z,5.90
2018-07-27T11:44:24.011Z,6.00
2018-07-27T11:46:56.026Z,5.80
2018-07-27T11:49:29.423Z,5.30
2018-07-27T11:51:59.688Z,5.30
2018-07-27T12:07:29.277Z,6.10
2018-07-27T12:10:08.319Z,5.60
2018-07-27T12:12:39.113Z,5.70
2018-07-27T12:15:10.338Z,5.50
2018-07-27T12:17:44.502Z,4.90
2018-07-27T12:25:18.233Z,6.00
2018-07-27T12:27:49.400Z,5.90
2018-07-27T12:30:24.539Z,4.80
2018-07-27T12:32:56.503Z,4.50
2018-07-27T12:35:30.213Z,4.90
2018-07-27T12:38:03.264Z,4.30
2018-07-27T12:40:33.912Z,4.20
2018-07-27T12:43:07.089Z,4.40
2018-07-27T12:45:38.047Z,3.70
2018-07-27T12:48:10.944Z,3.90
2018-07-27T12:50:43.122Z,3.80
2018-07-27T12:53:15.240Z,3.40
2018-07-27T12:55:47.600Z,4.90
2018-07-27T12:58:18.844Z,4.30
2018-07-27T13:00:48.795Z,4.50
2018-07-27T13:03:23.263Z,5.00
2018-07-27T13:05:53.989Z,3.60
2018-07-27T13:08:26.950Z,3.80
2018-07-27T13:11:01.819Z,3.80
2018-07-27T13:13:31.490Z,4.30
2018-07-27T13:16:04.831Z,3.50
2018-07-27T13:18:36.232Z,3.30
2018-07-27T13:21:05.524Z,3.30
2018-07-27T13:23:37.218Z,2.90
2018-07-27T13:26:26.057Z,3.30
2018-07-27T13:28:42.446Z,4.20
2018-07-27T13:31:13.653Z,3.60
2018-07-27T13:37:34.724Z,3.70
2018-07-27T13:40:07.799Z,2.90
2018-07-27T13:45:08.904Z,3.20
2018-07-27T13:50:18.895Z,2.80
2018-07-27T13:52:50.697Z,3.50
2018-07-27T13:57:50.594Z,3.10
2018-07-27T14:00:19.725Z,2.90
2018-07-27T14:02:51.878Z,1.40
2018-07-27T14:05:24.624Z,1.10
2018-07-27T14:07:58.157Z,2.00
2018-07-27T14:10:27.172Z,3.00
2018-07-27T14:12:57.544Z,2.70
2018-07-27T14:15:28.110Z,2.10
2018-07-27T14:17:59.633Z,1.90
2018-07-27T14:22:59.720Z,2.40
2018-07-27T14:25:33.862Z,2.80
2018-07-27T14:28:07.243Z,2.70
2018-07-27T14:30:41.538Z,2.70
2018-07-27T14:33:13.556Z,2.80
2018-07-27T14:35:46.244Z,2.60
2018-07-27T14:38:16.372Z,2.90
2018-07-27T14:40:46.626Z,1.00
2018-07-27T14:43:20.401Z,1.60
2018-07-27T14:45:52.600Z,1.60
2018-07-27T14:48:25.163Z,3.60
2018-07-27T14:50:55.885Z,2.30
2018-07-27T14:55:57.974Z,2.60
2018-07-27T14:58:30.376Z,2.90
2018-07-27T15:01:03.333Z,2.60
2018-07-27T15:06:05.958Z,2.60
2018-07-27T15:08:37.914Z,3.10
2018-07-27T15:11:10.222Z,1.80
2018-07-27T15:13:39.291Z,2.60
2018-07-27T15:16:13.225Z,2.50
2018-07-27T15:18:44.660Z,2.80
2018-07-27T15:21:14.632Z,2.60
2018-07-27T15:23:44.820Z,3.20
2018-07-27T15:26:18.945Z,2.60
2018-07-27T15:28:49.779Z,3.50
2018-07-27T15:31:19.656Z,3.10
2018-07-27T15:36:23.660Z,2.80
2018-07-27T15:38:55.124Z,2.20
2018-07-27T15:41:28.686Z,3.00
2018-07-27T15:44:02.281Z,2.70
2018-07-27T15:46:37.411Z,1.80
2018-07-27T15:49:12.535Z,2.40
2018-07-27T15:51:45.893Z,3.20
2018-07-27T15:54:19.139Z,2.90
2018-07-27T15:56:49.339Z,3.20
2018-07-27T15:59:21.552Z,3.90
2018-07-27T16:01:51.674Z,5.10
2018-07-27T16:04:22.890Z,4.90
2018-07-27T16:06:53.578Z,5.00
2018-07-27T16:09:23.652Z,5.00
2018-07-27T16:11:53.262Z,5.20
2018-07-27T16:14:22.490Z,5.50
2018-07-27T16:16:58.436Z,5.70
2018-07-27T16:19:29.430Z,6.20
2018-07-27T16:22:02.490Z,7.20
2018-07-27T16:24:39.031Z,7.60
2018-07-27T16:27:09.337Z,8.40
2018-07-27T16:29:44.148Z,7.80
2018-07-27T16:32:16.545Z,8.10
2018-07-27T16:34:45.912Z,7.20
2018-07-27T16:37:15.864Z,7.80
2018-07-27T16:39:52.884Z,8.60
2018-07-27T16:42:26.510Z,8.40
2018-07-27T16:47:36.426Z,9.80
2018-07-27T16:50:09.880Z,8.90
2018-07-27T16:55:10.648Z,8.70
2018-07-27T16:57:39.317Z,7.90
2018-07-27T17:00:10.518Z,8.40
2018-07-27T17:02:44.481Z,9.80
2018-07-27T17:05:20.088Z,9.10
2018-07-27T17:07:52.052Z,9.40
2018-07-27T17:10:22.622Z,9.90
2018-07-27T17:12:54.576Z,9.50
2018-07-27T17:15:29.969Z,9.00
2018-07-27T17:20:33.914Z,8.90
2018-07-27T17:23:05.983Z,9.50
2018-07-27T17:25:36.227Z,8.90
2018-07-27T17:28:08.279Z,10.00
2018-07-27T17:30:38.973Z,10.30
2018-07-27T17:33:14.813Z,10.40
2018-07-27T17:35:48.537Z,10.60
2018-07-27T17:43:21.388Z,11.10
2018-07-27T17:45:55.474Z,11.50
2018-07-27T17:48:28.696Z,11.80
2018-07-27T17:50:57.694Z,12.00
2018-07-27T17:53:26.980Z,12.60
2018-07-27T17:55:56.704Z,12.60
2018-07-27T17:58:26.676Z,12.50
2018-07-27T18:00:55.852Z,13.00
2018-07-27T18:03:24.442Z,14.10
2018-07-27T18:05:54.671Z,13.40
2018-07-27T18:08:24.726Z,14.00
2018-07-27T18:10:53.610Z,13.60
2018-07-27T18:15:51.005Z,14.30
2018-07-27T18:18:21.056Z,15.10
2018-07-27T18:23:20.299Z,15.30
2018-07-27T18:25:50.362Z,15.80
2018-07-27T18:28:21.828Z,15.70
2018-07-27T18:40:35.757Z,15.70
2018-07-27T18:43:04.334Z,18.00
2018-07-27T18:45:32.899Z,18.00
2018-07-27T18:48:01.619Z,18.20
2018-07-27T18:50:30.680Z,17.90
2018-07-27T18:52:59.632Z,18.20
2018-07-27T18:55:28.274Z,18.60
2018-07-27T18:57:57.035Z,18.10
2018-07-27T19:00:26.516Z,18.40
2018-07-27T19:02:55.256Z,18.60
2018-07-27T19:05:23.768Z,18.10
2018-07-27T19:07:53.158Z,18.00
2018-07-27T19:10:23.242Z,18.40
2018-07-27T19:12:51.969Z,17.60
2018-07-27T19:15:20.463Z,18.10
2018-07-27T19:17:49.961Z,18.10
2018-07-27T19:20:19.455Z,18.50
2018-07-27T19:22:48.207Z,18.40
2018-07-27T19:25:16.822Z,18.40
2018-07-27T19:27:47.911Z,18.60
2018-07-27T19:30:18.004Z,19.60
2018-07-27T19:32:47.592Z,19.40
2018-07-27T19:45:02.915Z,18.90
2018-07-27T19:47:32.359Z,22.30
2018-07-27T19:50:01.749Z,22.00
2018-07-27T19:52:32.308Z,21.60
2018-07-27T19:55:02.594Z,21.80
2018-07-27T19:57:31.252Z,22.30
2018-07-27T20:00:01.723Z,22.60
2018-07-27T20:02:30.824Z,22.30
2018-07-27T20:05:01.117Z,22.30
2018-07-27T20:07:30.420Z,22.20
2018-07-27T20:09:59.537Z,22.70
2018-07-27T20:12:28.245Z,22.80
2018-07-27T20:24:43.114Z,23.00
2018-07-27T20:27:12.929Z,24.90
2018-07-27T20:29:41.716Z,24.50
2018-07-27T20:32:10.546Z,25.00
2018-07-27T20:34:39.304Z,24.50
2018-07-27T20:37:08.186Z,24.30
2018-07-27T20:39:36.956Z,24.20
2018-07-27T20:42:05.908Z,24.40
2018-07-27T20:44:34.755Z,24.30
2018-07-27T20:47:03.437Z,24.60
2018-07-27T20:49:32.120Z,24.80
2018-07-27T20:52:01.270Z,24.60
2018-07-27T20:54:30.201Z,24.80
2018-07-27T20:57:02.734Z,24.70
2018-07-27T20:59:31.551Z,24.70
2018-07-27T21:02:00.309Z,24.60
2018-07-27T21:04:29.161Z,24.30
2018-07-27T21:06:59.637Z,24.60
2018-07-27T21:09:29.253Z,25.10
2018-07-27T21:14:27.479Z,24.80
2018-07-27T21:16:56.318Z,24.80
2018-07-27T21:19:25.352Z,24.90
2018-07-27T21:21:55.553Z,25.30
2018-07-27T21:24:24.796Z,25.30
2018-07-27T21:26:54.895Z,25.10
2018-07-27T21:29:23.588Z,25.20
2018-07-27T21:31:52.380Z,25.50
2018-07-27T21:34:23.202Z,26.00
2018-07-27T21:36:52.157Z,25.40
2018-07-27T21:39:21.041Z,25.80
2018-07-27T21:41:49.821Z,25.60
2018-07-27T21:44:18.563Z,26.00
2018-07-27T21:46:47.430Z,26.10
2018-07-27T21:49:17.613Z,26.20
2018-07-27T21:51:46.236Z,26.70
2018-07-27T21:54:15.154Z,26.20
2018-07-27T21:56:43.905Z,27.20
2018-07-27T22:01:42.268Z,26.70
2018-07-27T22:04:12.122Z,26.80
2018-07-27T22:06:40.725Z,27.20
2018-07-27T22:09:10.263Z,27.70
2018-07-27T22:11:39.131Z,27.20
2018-07-27T22:14:07.872Z,27.40
2018-07-27T22:16:37.604Z,27.60
2018-07-27T22:19:08.646Z,27.50
2018-07-27T22:21:37.021Z,27.90
2018-07-27T22:24:06.044Z,27.20
2018-07-27T22:29:03.579Z,30.30
2018-07-27T22:47:01.852Z,42.90
2018-07-27T22:49:30.629Z,44.70
2018-07-27T22:52:05.900Z,44.60
2018-07-27T22:54:35.302Z,45.50
2018-07-27T22:57:04.466Z,45.70
2018-07-27T22:59:34.842Z,45.90
2018-07-27T23:02:04.226Z,46.30
2018-07-27T23:04:33.765Z,46.30
2018-07-27T23:07:04.920Z,46.30
2018-07-27T23:12:05.282Z,47.50
2018-07-27T23:14:35.375Z,48.20
2018-07-27T23:17:07.152Z,47.60
2018-07-27T23:19:38.260Z,48.40
2018-07-27T23:22:08.127Z,47.80
2018-07-27T23:24:41.711Z,47.30
2018-07-27T23:29:39.980Z,48.00
2018-07-27T23:32:10.143Z,48.20
2018-07-27T23:34:39.221Z,47.90
2018-07-27T23:37:08.720Z,47.90
2018-07-27T23:39:41.274Z,47.50
2018-07-27T23:42:11.779Z,46.80
2018-07-27T23:49:39.980Z,47.00
2018-07-27T23:52:10.467Z,46.90
2018-07-27T23:54:41.006Z,47.10
2018-07-27T23:57:13.383Z,47.60
2018-07-27T23:59:47.605Z,46.50
